Time;durP1;ratioP1;P1;durP2;ratioP2;P2;SDS_P1;SDS_P2;PMS_P1;PMS_P2;Temp;Humidity;BMP_temperature;BMP_pressure;BME280_temperature;BME280_humidity;BME280_pressure;Samples;Min_cycle;Max_cycle;Signal;HPM_P1;HPM_P2
2024/04/07 00:00:51;;;;;;;18.25;11.32;;;;;;;15.56;100.00;99989.19;7387449;19;20015;-76
2024/04/07 00:03:17;;;;;;;19.48;10.68;;;;;;;15.54;100.00;99991.94;7391120;19;20006;-74
2024/04/07 00:05:44;;;;;;;15.50;10.60;;;;;;;15.60;100.00;99994.16;7387898;19;20023;-75
2024/04/07 00:08:09;;;;;;;13.50;9.93;;;;;;;15.46;100.00;99978.28;7368765;19;20023;-75
2024/04/07 00:10:36;;;;;;;15.70;10.73;;;;;;;15.40;100.00;99986.75;7383384;19;20034;-75
2024/04/07 00:13:01;;;;;;;20.85;11.93;;;;;;;15.23;100.00;99973.78;7387564;19;20371;-73
2024/04/07 00:15:27;;;;;;;16.83;10.65;;;;;;;15.12;100.00;99973.69;7384489;19;20017;-75
2024/04/07 00:17:52;;;;;;;19.55;12.38;;;;;;;15.20;100.00;99995.34;7390570;19;20081;-73
2024/04/07 00:20:18;;;;;;;16.90;10.82;;;;;;;15.16;100.00;99991.19;7388638;19;20030;-75
2024/04/07 00:22:44;;;;;;;15.77;11.75;;;;;;;14.95;100.00;99957.09;7390777;19;20030;-75
2024/04/07 00:25:10;;;;;;;17.13;10.70;;;;;;;15.02;100.00;99971.72;7386197;19;20026;-74
2024/04/07 00:27:35;;;;;;;13.73;10.95;;;;;;;15.05;100.00;99991.97;7391704;19;20010;-76
2024/04/07 00:30:01;;;;;;;22.02;11.85;;;;;;;15.12;100.00;100011.88;7388455;19;20486;-75
2024/04/07 00:32:27;;;;;;;16.80;11.02;;;;;;;14.74;100.00;99954.19;7388726;19;20114;-74
2024/04/07 00:34:52;;;;;;;16.63;11.25;;;;;;;14.66;100.00;99932.53;7387369;19;21789;-73
2024/04/07 00:37:18;;;;;;;15.88;10.40;;;;;;;14.66;100.00;99935.19;7392659;19;20002;-77
2024/04/07 00:39:44;;;;;;;15.40;9.18;;;;;;;15.07;100.00;99990.06;7389551;19;20021;-75
2024/04/07 00:42:11;;;;;;;12.45;8.65;;;;;;;14.93;100.00;99963.53;7387834;19;20014;-75
2024/04/07 00:44:37;;;;;;;11.80;8.27;;;;;;;14.93;100.00;99958.19;7387516;19;22022;-74
2024/04/07 00:47:05;;;;;;;13.30;8.23;;;;;;;14.91;100.00;99918.31;7392038;19;20023;-74
2024/04/07 00:49:31;;;;;;;13.48;7.88;;;;;;;15.01;100.00;99950.47;7389923;19;19999;-75
2024/04/07 00:51:58;;;;;;;8.38;7.10;;;;;;;14.91;100.00;99942.31;7389121;19;20015;-73
2024/04/07 00:54:25;;;;;;;9.43;6.80;;;;;;;14.74;100.00;99908.00;7386211;19;20911;-78
2024/04/07 00:56:51;;;;;;;10.70;6.65;;;;;;;15.09;100.00;99978.31;7390228;19;20018;-74
2024/04/07 00:59:16;;;;;;;8.93;6.00;;;;;;;15.04;100.00;99972.47;7390994;19;20066;-76
2024/04/07 01:01:43;;;;;;;10.70;7.15;;;;;;;14.85;100.00;99955.22;7388142;19;20003;-75
2024/04/07 01:04:09;;;;;;;9.65;6.68;;;;;;;14.84;100.00;99969.50;7386456;19;20010;-74
2024/04/07 01:06:34;;;;;;;11.90;6.95;;;;;;;14.88;100.00;99966.50;7388440;19;20019;-75
2024/04/07 01:09:02;;;;;;;12.05;7.88;;;;;;;15.02;100.00;100005.53;7391883;19;20011;-75
2024/04/07 01:11:32;;;;;;;13.40;8.80;;;;;;;14.74;100.00;99974.66;7405305;19;20007;-75
2024/04/07 01:13:58;;;;;;;15.30;9.88;;;;;;;14.87;100.00;100014.59;7392015;19;20018;-74
2024/04/07 01:16:23;;;;;;;15.48;9.55;;;;;;;14.75;100.00;99992.34;7387774;19;20082;-74
2024/04/07 01:18:49;;;;;;;16.30;9.25;;;;;;;14.61;100.00;99987.13;7389267;19;20381;-75
2024/04/07 01:21:15;;;;;;;14.25;9.73;;;;;;;14.34;100.00;99965.88;7388180;19;20023;-76
2024/04/07 01:23:40;;;;;;;13.27;9.77;;;;;;;14.31;100.00;99974.09;7386154;19;20348;-74
2024/04/07 01:26:06;;;;;;;13.63;9.60;;;;;;;14.53;100.00;100040.09;7386363;19;20368;-74
2024/04/07 01:28:32;;;;;;;15.13;9.45;;;;;;;14.26;100.00;99982.41;7387398;19;20018;-75
2024/04/07 01:30:57;;;;;;;13.63;10.32;;;;;;;14.48;100.00;100027.06;7387950;19;20134;-75
2024/04/07 01:33:23;;;;;;;12.95;8.82;;;;;;;14.36;100.00;100011.91;7388809;19;20009;-75
2024/04/07 01:35:49;;;;;;;14.02;9.65;;;;;;;14.47;100.00;100027.22;7383425;19;20006;-75
2024/04/07 01:38:15;;;;;;;13.63;8.98;;;;;;;14.32;100.00;100007.78;7386128;19;20340;-74
2024/04/07 01:40:40;;;;;;;13.90;9.35;;;;;;;14.46;100.00;100041.47;7385738;19;20018;-76
2024/04/07 01:43:06;;;;;;;15.75;10.05;;;;;;;14.18;100.00;99987.38;7383388;19;20037;-75
2024/04/07 01:45:31;;;;;;;13.73;9.07;;;;;;;14.26;100.00;99990.38;7382353;19;20030;-75
2024/04/07 01:47:59;;;;;;;13.52;9.50;;;;;;;14.27;100.00;99993.91;7388843;19;20042;-75
2024/04/07 01:50:25;;;;;;;15.18;8.98;;;;;;;14.18;100.00;99986.53;7386831;19;20015;-74
2024/04/07 01:52:54;;;;;;;14.20;9.52;;;;;;;14.34;100.00;100013.81;7388792;19;20010;-75
2024/04/07 01:55:22;;;;;;;14.93;9.65;;;;;;;14.12;100.00;99990.47;7384359;19;20045;-74
2024/04/07 01:57:47;;;;;;;13.73;9.40;;;;;;;13.96;100.00;99955.19;7388038;19;20562;-74
2024/04/07 02:00:13;;;;;;;12.50;8.90;;;;;;;14.08;100.00;99975.66;7387577;19;20022;-75
2024/04/07 02:02:39;;;;;;;12.90;8.65;;;;;;;14.14;100.00;99993.03;7384518;19;20014;-75
2024/04/07 02:05:05;;;;;;;13.95;9.77;;;;;;;14.20;100.00;100003.25;7383509;19;20013;-76
2024/04/07 02:07:32;;;;;;;15.88;9.63;;;;;;;13.87;100.00;99940.69;7388918;19;20013;-74
2024/04/07 02:09:59;;;;;;;14.77;9.52;;;;;;;14.26;100.00;100010.84;7368032;19;20022;-75
2024/04/07 02:12:24;;;;;;;16.58;9.13;;;;;;;14.23;100.00;100011.91;7385950;19;20138;-75
2024/04/07 02:14:50;;;;;;;13.98;8.95;;;;;;;14.15;100.00;100005.41;7382374;19;20089;-74
2024/04/07 02:17:15;;;;;;;13.68;9.38;;;;;;;13.93;100.00;99968.72;7386315;19;20373;-75
2024/04/07 02:19:41;;;;;;;17.50;9.18;;;;;;;14.40;100.00;100040.09;7388146;19;20007;-75
2024/04/07 02:22:07;;;;;;;14.13;9.50;;;;;;;14.14;100.00;99999.22;7386354;19;20071;-74
2024/04/07 02:24:32;;;;;;;13.95;9.20;;;;;;;14.17;100.00;100003.47;7385904;19;20133;-75
2024/04/07 02:26:59;;;;;;;17.23;9.68;;;;;;;14.34;100.00;100029.81;7387477;19;20046;-75
2024/04/07 02:29:26;;;;;;;21.10;9.35;;;;;;;14.25;100.00;100020.63;7387753;19;20010;-75
2024/04/07 02:31:51;;;;;;;13.50;8.38;;;;;;;14.32;100.00;100045.06;7384653;19;20051;-76
2024/04/07 02:34:17;;;;;;;11.68;8.55;;;;;;;14.22;100.00;100035.97;7389469;19;20369;-73
2024/04/07 02:36:42;;;;;;;13.73;10.77;;;;;;;14.16;100.00;100026.59;7387300;19;20018;-75
2024/04/07 02:39:13;;;;;;;16.10;9.35;;;;;;;14.13;100.00;100037.47;7398831;19;20011;-74
2024/04/07 02:41:41;;;;;;;15.98;8.75;;;;;;;14.16;100.00;100049.72;7403510;19;20010;-74
2024/04/07 02:44:07;;;;;;;13.18;9.18;;;;;;;13.95;100.00;100028.88;7403760;19;20038;-75
2024/04/07 02:49:17;;;;;;;12.05;8.77;;;;;;;14.20;100.00;100065.38;7401051;19;20010;-76
2024/04/07 02:51:43;;;;;;;11.70;8.82;;;;;;;14.11;100.00;100058.00;7394540;19;20021;-74
2024/04/07 02:54:10;;;;;;;13.55;9.13;;;;;;;14.18;100.00;100072.59;7390565;19;20014;-74
2024/04/07 02:56:37;;;;;;;13.48;8.48;;;;;;;14.07;100.00;100048.50;7390918;19;20035;-75
2024/04/07 02:59:03;;;;;;;12.75;8.65;;;;;;;14.13;100.00;100068.56;7373972;19;20017;-74
2024/04/07 03:01:29;;;;;;;14.38;8.85;;;;;;;14.07;100.00;100055.63;7391883;19;20018;-74
2024/04/07 03:03:56;;;;;;;12.25;8.40;;;;;;;14.04;100.00;100048.69;7394986;19;20015;-75
2024/04/07 03:06:21;;;;;;;12.93;8.98;;;;;;;13.87;100.00;100020.53;7387962;19;20018;-75
2024/04/07 03:08:49;;;;;;;13.50;8.50;;;;;;;13.66;100.00;99982.91;7395182;19;20010;-75
2024/04/07 03:11:14;;;;;;;14.95;8.63;;;;;;;14.15;100.00;100063.97;7392211;19;20047;-76
2024/04/07 03:13:41;;;;;;;11.35;8.45;;;;;;;13.91;100.00;100021.19;7393045;19;20070;-74
2024/04/07 03:16:13;;;;;;;12.05;7.90;;;;;;;14.29;100.00;100090.53;7388566;19;20010;-75
2024/04/07 03:18:39;;;;;;;10.35;8.32;;;;;;;14.21;100.00;100067.06;7395429;19;20792;-76
2024/04/07 03:21:05;;;;;;;11.70;8.15;;;;;;;14.32;100.00;100085.84;7391323;19;20324;-75
2024/04/07 03:23:31;;;;;;;12.32;7.78;;;;;;;14.35;100.00;100085.63;7394645;19;20002;-74
2024/04/07 03:25:57;;;;;;;12.38;7.78;;;;;;;14.11;100.00;100039.38;7391358;19;20022;-76
2024/04/07 03:28:25;;;;;;;12.05;6.85;;;;;;;14.08;100.00;100033.38;7393319;19;20010;-74
2024/04/07 03:30:54;;;;;;;8.90;5.78;;;;;;;14.54;100.00;100092.41;7392183;19;20025;-74
2024/04/07 03:33:23;;;;;;;10.20;6.10;;;;;;;14.52;100.00;100081.00;7394079;19;20011;-74
2024/04/07 03:35:48;;;;;;;8.93;5.78;;;;;;;14.54;100.00;100055.13;7388964;19;20021;-75
2024/04/07 03:38:14;;;;;;;9.75;4.97;;;;;;;14.66;100.00;100073.78;7390056;19;20010;-74
2024/04/07 03:40:40;;;;;;;6.40;4.97;;;;;;;14.61;100.00;100053.75;7389061;19;20010;-74
2024/04/07 03:43:06;;;;;;;10.27;5.03;;;;;;;14.99;100.00;100094.56;7393522;19;20035;-75
2024/04/07 03:45:31;;;;;;;7.55;4.97;;;;;;;14.89;100.00;100077.53;7388126;19;20002;-74
2024/04/07 03:47:57;;;;;;;7.35;4.68;;;;;;;14.79;100.00;100046.28;7391303;19;20010;-74
2024/04/07 03:50:23;;;;;;;8.52;4.82;;;;;;;14.89;100.00;100060.69;7392635;19;20074;-74
2024/04/07 03:52:48;;;;;;;6.55;4.82;;;;;;;14.94;100.00;100051.41;7390922;19;20066;-75
2024/04/07 03:55:14;;;;;;;6.03;4.30;;;;;;;15.12;100.00;100078.56;7388144;19;20019;-74
2024/04/07 03:57:39;;;;;;;6.97;4.30;;;;;;;15.34;100.00;100115.25;7389248;19;20336;-74
2024/04/07 04:00:05;;;;;;;6.97;4.20;;;;;;;15.29;100.00;100096.03;7368397;19;20028;-73
2024/04/07 04:02:31;;;;;;;7.50;4.60;;;;;;;15.17;100.00;100068.44;7389171;19;20355;-76
2024/04/07 04:05:03;;;;;;;5.20;3.95;;;;;;;15.48;100.00;100125.78;7391645;19;20006;-76
2024/04/07 04:07:30;;;;;;;8.25;4.30;;;;;;;15.48;100.00;100125.78;7392860;19;20786;-76
2024/04/07 04:09:59;;;;;;;5.90;4.30;;;;;;;15.45;100.00;100137.53;7392855;19;20018;-75
2024/04/07 04:12:26;;;;;;;7.90;4.32;;;;;;;15.44;100.00;100132.31;7387873;19;20911;-76
2024/04/07 04:14:57;;;;;;;5.63;4.10;;;;;;;15.43;100.00;100141.25;7398778;19;20018;-76
2024/04/07 04:17:23;;;;;;;7.13;4.25;;;;;;;15.32;100.00;100119.84;7392721;19;20017;-74
2024/04/07 04:19:50;;;;;;;6.45;4.10;;;;;;;15.42;100.00;100155.59;7392500;19;20010;-75
2024/04/07 04:22:15;;;;;;;6.32;4.28;;;;;;;15.06;100.00;100095.88;7393327;19;20006;-76
2024/04/07 04:24:41;;;;;;;10.90;4.22;;;;;;;15.37;100.00;100147.91;7393037;19;20482;-75
2024/04/07 04:27:07;;;;;;;7.15;4.10;;;;;;;15.15;100.00;100118.34;7388454;19;20485;-75
2024/04/07 04:29:33;;;;;;;6.03;4.18;;;;;;;15.34;100.00;100153.47;7393235;19;20013;-76
2024/04/07 04:32:03;;;;;;;7.53;3.80;;;;;;;15.28;100.00;100150.34;7390900;19;20023;-74
2024/04/07 04:34:32;;;;;;;7.57;3.97;;;;;;;15.14;100.00;100118.47;7391948;19;20027;-74
2024/04/07 04:36:58;;;;;;;5.85;3.58;;;;;;;15.19;100.00;100135.84;7389482;19;20011;-74
2024/04/07 04:39:25;;;;;;;4.50;3.60;;;;;;;15.21;100.00;100146.44;7393507;19;20010;-74
2024/04/07 04:41:51;;;;;;;7.25;3.55;;;;;;;15.39;100.00;100170.00;7388799;19;20025;-78
2024/04/07 04:44:17;;;;;;;6.00;3.60;;;;;;;15.21;100.00;100149.09;7391841;19;20505;-75
2024/04/07 04:46:46;;;;;;;6.13;3.40;;;;;;;14.99;100.00;100123.06;7387881;19;20022;-76
2024/04/07 04:49:12;;;;;;;5.85;3.80;;;;;;;15.02;100.00;100139.69;7395627;19;20011;-74
2024/04/07 04:51:38;;;;;;;8.20;3.42;;;;;;;15.04;100.00;100155.59;7390818;19;20013;-77
2024/04/07 04:54:05;;;;;;;8.18;3.47;;;;;;;15.31;100.00;100191.00;7394995;19;20007;-75
2024/04/07 04:56:31;;;;;;;7.78;3.53;;;;;;;15.36;100.00;100220.06;7386983;19;20469;-74
2024/04/07 04:58:58;;;;;;;7.22;3.30;;;;;;;15.26;99.24;100190.50;7390267;19;20014;-76
2024/04/07 05:01:25;;;;;;;5.07;2.90;;;;;;;15.41;97.80;100210.78;7388727;19;20011;-76
2024/04/07 05:03:52;;;;;;;6.90;3.00;;;;;;;15.35;95.71;100197.84;7390275;19;20014;-75
2024/04/07 05:06:19;;;;;;;6.47;3.10;;;;;;;15.72;93.67;100236.19;7388323;19;20018;-75
2024/04/07 05:08:45;;;;;;;8.95;3.10;;;;;;;15.44;93.40;100183.00;7389952;19;20002;-75
2024/04/07 05:11:11;;;;;;;10.52;3.10;;;;;;;15.41;92.39;100175.22;7391543;19;20007;-75
2024/04/07 05:13:37;;;;;;;7.97;2.85;;;;;;;15.62;92.52;100207.56;7390053;19;20002;-75
2024/04/07 05:16:03;;;;;;;6.28;3.08;;;;;;;15.54;91.76;100205.44;7387911;19;20018;-75
2024/04/07 05:18:30;;;;;;;5.72;2.83;;;;;;;15.68;91.54;100218.69;7389451;19;20384;-76
2024/04/07 05:20:56;;;;;;;6.25;3.22;;;;;;;15.83;91.95;100238.09;7389285;19;20022;-74
2024/04/07 05:23:23;;;;;;;6.85;3.10;;;;;;;15.71;92.13;100220.28;7388690;19;20021;-76
2024/04/07 05:25:48;;;;;;;5.63;2.95;;;;;;;15.60;92.73;100215.69;7386235;19;20011;-74
2024/04/07 05:28:14;;;;;;;7.90;2.75;;;;;;;15.23;92.06;100163.19;7387877;19;20021;-75
2024/04/07 05:30:43;;;;;;;5.03;2.75;;;;;;;15.62;91.26;100235.13;7388430;19;20015;-75
2024/04/07 05:33:09;;;;;;;9.02;3.05;;;;;;;15.75;91.56;100273.34;7391203;19;20006;-74
2024/04/07 05:35:35;;;;;;;6.85;3.08;;;;;;;15.85;90.70;100278.03;7389261;19;20015;-74
2024/04/07 05:38:01;;;;;;;4.28;2.97;;;;;;;15.85;90.64;100270.03;7386202;19;20021;-73
2024/04/07 05:40:28;;;;;;;4.63;2.63;;;;;;;15.90;90.25;100283.91;7387874;19;20018;-76
2024/04/07 05:42:54;;;;;;;7.05;2.83;;;;;;;15.83;88.88;100271.94;7386564;19;20473;-74
2024/04/07 05:45:21;;;;;;;5.55;3.03;;;;;;;15.86;87.83;100269.94;7389608;19;20463;-74
2024/04/07 05:47:53;;;;;;;9.30;2.95;;;;;;;16.01;88.47;100284.84;7387053;19;20035;-74
2024/04/07 05:50:19;;;;;;;7.45;2.97;;;;;;;15.81;88.74;100239.16;7386267;19;20014;-74
2024/04/07 05:52:45;;;;;;;5.53;3.13;;;;;;;15.83;88.28;100248.78;7398719;19;20011;-74
2024/04/07 05:55:12;;;;;;;6.28;3.28;;;;;;;15.99;87.81;100276.09;7387062;19;20114;-74
2024/04/07 05:57:39;;;;;;;8.18;2.70;;;;;;;16.03;87.45;100274.06;7383105;19;20308;-76
2024/04/07 06:00:08;;;;;;;5.13;2.58;;;;;;;16.07;87.45;100263.03;7387779;19;20015;-75
2024/04/07 06:02:35;;;;;;;4.45;2.42;;;;;;;16.13;87.69;100259.94;7386912;19;20011;-75
2024/04/07 06:05:01;;;;;;;7.10;2.60;;;;;;;16.08;86.62;100242.53;7389036;19;20051;-75
2024/04/07 06:07:27;;;;;;;5.05;2.53;;;;;;;16.25;86.67;100254.66;7382353;19;20045;-74
2024/04/07 06:09:53;;;;;;;6.55;2.67;;;;;;;16.58;83.09;100296.78;7389475;19;20011;-74
2024/04/07 06:12:19;;;;;;;5.43;2.33;;;;;;;16.68;79.31;100314.75;7387965;19;20006;-75
2024/04/07 06:14:46;;;;;;;4.70;2.28;;;;;;;16.75;77.25;100323.16;7390373;19;20003;-73
2024/04/07 06:17:12;;;;;;;6.15;2.47;;;;;;;16.74;76.88;100308.94;7384805;19;20010;-74
2024/04/07 06:19:38;;;;;;;6.03;2.80;;;;;;;16.73;76.25;100296.53;7384772;19;20006;-73
2024/04/07 06:22:03;;;;;;;9.80;2.45;;;;;;;16.95;75.91;100333.25;7377041;19;20017;-74
2024/04/07 06:24:29;;;;;;;7.07;2.20;;;;;;;17.00;75.58;100330.25;7386972;19;20546;-74
2024/04/07 06:26:54;;;;;;;10.52;2.63;;;;;;;16.91;73.15;100313.03;7389712;19;20022;-73
2024/04/07 06:29:20;;;;;;;5.63;2.50;;;;;;;17.16;73.33;100347.69;7396167;19;20021;-74
2024/04/07 06:31:47;;;;;;;4.50;1.92;;;;;;;17.27;70.92;100346.03;7386106;19;20666;-74
2024/04/07 06:34:14;;;;;;;5.28;2.10;;;;;;;17.45;69.62;100356.22;7367484;19;20025;-74
2024/04/07 06:36:39;;;;;;;5.60;2.10;;;;;;;17.55;68.71;100353.69;7388462;19;20018;-75
2024/04/07 06:39:05;;;;;;;5.82;2.15;;;;;;;17.73;68.99;100364.84;7389488;19;20018;-75
2024/04/07 06:41:31;;;;;;;5.72;1.92;;;;;;;17.83;66.58;100361.31;7391193;19;20011;-75
2024/04/07 06:43:56;;;;;;;8.18;1.88;;;;;;;17.74;65.90;100324.56;7389683;19;20015;-75
2024/04/07 06:46:23;;;;;;;3.90;1.80;;;;;;;18.14;65.89;100358.91;7389250;19;20007;-74
2024/04/07 06:48:49;;;;;;;4.95;1.83;;;;;;;18.29;65.05;100367.56;7402620;19;20015;-74
2024/04/07 06:51:14;;;;;;;4.50;2.00;;;;;;;18.26;64.16;100343.72;7408586;19;20042;-74
2024/04/07 06:53:40;;;;;;;4.57;1.95;;;;;;;18.66;62.58;100392.34;7412630;19;20017;-74
2024/04/07 06:56:07;;;;;;;5.43;2.50;;;;;;;18.43;61.97;100345.88;7401711;19;20093;-73
2024/04/07 06:58:32;;;;;;;7.57;2.15;;;;;;;18.66;61.12;100350.28;7384113;19;20033;-74
2024/04/07 07:01:00;;;;;;;4.35;1.83;;;;;;;18.98;61.52;100363.75;7387894;19;20497;-73
2024/04/07 07:03:26;;;;;;;7.40;2.10;;;;;;;19.17;59.79;100371.97;7392212;19;20471;-74
2024/04/07 07:05:52;;;;;;;8.27;2.10;;;;;;;19.46;59.68;100408.97;7390300;19;20042;-74
2024/04/07 07:08:18;;;;;;;6.35;2.30;;;;;;;19.45;59.38;100373.22;7379166;19;20417;-75
2024/04/07 07:10:59;;;;;;;4.50;1.88;;;;;;;19.94;59.22;100429.03;7362850;19;20704;-75
2024/04/07 07:13:45;;;;;;;5.03;1.85;;;;;;;20.01;57.27;100436.56;7388066;19;20029;-75
2024/04/07 07:16:10;;;;;;;7.72;1.77;;;;;;;20.08;57.84;100440.44;7382847;19;20015;-74
2024/04/07 07:18:36;;;;;;;6.75;1.90;;;;;;;20.08;57.41;100443.13;7383040;19;20011;-74
2024/04/07 07:21:06;;;;;;;10.10;2.22;;;;;;;20.03;57.58;100418.47;7393127;19;20035;-75
2024/04/07 07:23:32;;;;;;;3.45;1.63;;;;;;;20.20;58.14;100428.63;7391324;19;20010;-75
2024/04/07 07:26:02;;;;;;;6.55;2.10;;;;;;;19.90;56.93;100368.47;7392677;19;20010;-76
2024/04/07 07:28:31;;;;;;;8.20;1.83;;;;;;;20.03;56.51;100407.72;7389175;19;20030;-75
2024/04/07 07:30:56;;;;;;;7.22;2.05;;;;;;;19.94;56.89;100414.75;7391997;19;20011;-74
2024/04/07 07:33:22;;;;;;;6.55;2.03;;;;;;;19.93;57.84;100431.84;7386688;19;20556;-75
2024/04/07 07:35:52;;;;;;;6.05;1.90;;;;;;;20.12;59.60;100448.13;7372659;19;20010;-75
2024/04/07 07:38:17;;;;;;;5.75;2.15;;;;;;;20.02;58.48;100401.50;7387139;19;20363;-74
2024/04/07 07:40:43;;;;;;;10.23;2.42;;;;;;;20.36;58.25;100417.38;7393397;19;20018;-74
2024/04/07 07:43:10;;;;;;;4.45;2.10;;;;;;;20.71;57.35;100438.53;7396561;19;20010;-73
2024/04/07 07:45:36;;;;;;;3.13;1.80;;;;;;;20.95;56.58;100406.72;7402050;19;20006;-73
2024/04/07 07:48:02;;;;;;;6.80;2.05;;;;;;;21.17;54.97;100444.22;7385961;19;20017;-71
2024/04/07 07:50:28;;;;;;;4.47;2.17;;;;;;;21.31;55.89;100478.84;7383800;19;20378;-71
2024/04/07 07:52:53;;;;;;;2.63;2.08;;;;;;;21.39;55.21;100482.72;7388231;19;20006;-72
2024/04/07 07:55:20;;;;;;;5.22;1.90;;;;;;;21.62;55.16;100462.59;7384019;19;20014;-72
2024/04/07 07:57:47;;;;;;;5.03;2.05;;;;;;;21.58;53.46;100407.25;7381245;19;20018;-75
2024/04/07 08:00:14;;;;;;;5.10;2.10;;;;;;;22.11;52.74;100461.59;7389026;19;20104;-74
2024/04/07 08:02:40;;;;;;;7.30;2.00;;;;;;;22.29;52.20;100467.09;7386585;19;20506;-73
2024/04/07 08:05:06;;;;;;;8.73;2.35;;;;;;;22.36;50.88;100487.09;7384191;19;20015;-74
2024/04/07 08:07:32;;;;;;;5.40;1.92;;;;;;;22.16;52.22;100482.75;7388367;19;20081;-72
2024/04/07 08:09:59;;;;;;;4.38;1.80;;;;;;;21.67;51.82;100436.06;7397824;19;20070;-73
2024/04/07 08:12:26;;;;;;;8.23;2.08;;;;;;;21.38;52.93;100408.28;7405734;19;20007;-75
2024/04/07 08:14:51;;;;;;;7.05;2.00;;;;;;;21.56;52.83;100487.41;7407477;19;20023;-73
2024/04/07 08:17:17;;;;;;;6.38;2.10;;;;;;;21.37;54.22;100466.69;7390743;19;20018;-75
2024/04/07 08:19:42;;;;;;;9.25;2.00;;;;;;;21.07;55.36;100416.41;7385036;19;20010;-74
2024/04/07 08:22:08;;;;;;;6.13;2.00;;;;;;;21.20;54.20;100465.50;7383179;19;20007;-74
2024/04/07 08:24:34;;;;;;;4.60;1.70;;;;;;;21.08;54.83;100465.72;7390685;19;20021;-75
2024/04/07 08:26:59;;;;;;;6.13;1.90;;;;;;;20.85;54.99;100465.94;7389965;19;20011;-73
2024/04/07 08:29:25;;;;;;;4.55;1.88;;;;;;;20.84;55.81;100495.69;7386478;19;20018;-73
2024/04/07 08:31:51;;;;;;;4.68;1.85;;;;;;;20.63;56.58;100484.94;7388832;19;20066;-73
2024/04/07 08:34:16;;;;;;;8.05;1.95;;;;;;;20.54;56.79;100483.06;7391065;19;20010;-74
2024/04/07 08:36:42;;;;;;;6.63;2.25;;;;;;;20.55;57.83;100504.47;7392289;19;20006;-73
2024/04/07 08:39:08;;;;;;;5.63;2.00;;;;;;;20.60;58.15;100509.44;7387780;19;20010;-75
2024/04/07 08:41:33;;;;;;;6.53;2.28;;;;;;;20.56;59.80;100484.66;7384690;19;20007;-75
2024/04/07 08:44:00;;;;;;;8.30;2.97;;;;;;;20.65;58.36;100494.59;7389511;19;20018;-74
2024/04/07 08:46:26;;;;;;;6.05;2.03;;;;;;;20.59;57.66;100481.69;7388961;19;20006;-76
2024/04/07 08:48:53;;;;;;;4.55;1.98;;;;;;;20.87;58.51;100503.47;7388729;19;20035;-76
2024/04/07 08:51:19;;;;;;;7.13;2.35;;;;;;;20.86;57.12;100488.31;7387586;19;20458;-76
2024/04/07 08:53:45;;;;;;;5.13;1.90;;;;;;;21.09;57.05;100515.91;7389310;19;20010;-77
2024/04/07 08:56:14;;;;;;;4.78;1.98;;;;;;;21.12;55.42;100505.69;7388570;19;20014;-77
2024/04/07 08:58:40;;;;;;;6.78;2.17;;;;;;;21.28;54.95;100505.19;7385985;19;20075;-75
2024/04/07 09:01:11;;;;;;;6.85;1.90;;;;;;;21.15;54.41;100473.09;7388705;19;20003;-75
2024/04/07 09:03:37;;;;;;;5.20;1.85;;;;;;;21.49;53.39;100535.59;7392018;19;20527;-77
2024/04/07 09:06:03;;;;;;;6.03;1.60;;;;;;;21.46;53.42;100540.41;7394224;19;20014;-77
2024/04/07 09:08:30;;;;;;;9.40;2.08;;;;;;;21.21;53.44;100474.44;7383711;19;20015;-77
2024/04/07 09:10:56;;;;;;;5.70;1.83;;;;;;;21.45;52.67;100503.69;7389672;19;20010;-76
2024/04/07 09:13:22;;;;;;;4.88;2.15;;;;;;;21.35;52.97;100474.91;7391854;19;20017;-75
2024/04/07 09:15:48;;;;;;;8.75;1.95;;;;;;;21.60;52.71;100504.97;7349015;19;20171;-76
2024/04/07 09:18:17;;;;;;;3.72;1.73;;;;;;;21.84;52.30;100521.63;7382377;19;20031;-75
2024/04/07 09:20:43;;;;;;;5.20;1.85;;;;;;;22.11;51.51;100541.66;7387929;19;20019;-75
2024/04/07 09:23:09;;;;;;;7.45;2.15;;;;;;;22.03;51.54;100496.53;7386830;19;20010;-76
2024/04/07 09:25:35;;;;;;;5.00;1.70;;;;;;;22.30;51.06;100514.69;7388750;19;20006;-75
2024/04/07 09:28:02;;;;;;;5.70;1.92;;;;;;;22.43;49.40;100526.00;7385763;19;20419;-75
2024/04/07 09:30:30;;;;;;;7.50;1.75;;;;;;;22.31;49.49;100519.94;7387807;19;20017;-77
2024/04/07 09:32:55;;;;;;;6.10;2.33;;;;;;;22.19;49.80;100477.06;7388690;19;20059;-75
2024/04/07 09:35:24;;;;;;;4.43;2.17;;;;;;;22.43;49.39;100525.16;7388537;19;20013;-75
2024/04/07 09:37:51;;;;;;;4.22;2.00;;;;;;;22.59;50.04;100512.75;7384135;19;20425;-75
2024/04/07 09:40:16;;;;;;;5.07;1.70;;;;;;;22.82;49.68;100520.56;7384586;19;20029;-75
2024/04/07 09:42:43;;;;;;;5.78;1.80;;;;;;;22.67;49.14;100487.72;7387902;19;20011;-75
2024/04/07 09:45:11;;;;;;;4.13;2.03;;;;;;;22.63;49.09;100484.50;7390626;19;20018;-77
2024/04/07 09:47:39;;;;;;;5.55;1.77;;;;;;;22.63;49.04;100472.84;7366549;19;20007;-76
2024/04/07 09:50:24;;;;;;;5.47;1.83;;;;;;;22.78;47.99;100448.94;7386531;19;20014;-75
2024/04/07 09:52:53;;;;;;;2.85;1.35;;;;;;;22.93;48.24;100442.03;7386377;19;20035;-78
2024/04/07 09:55:22;;;;;;;5.82;1.60;;;;;;;23.31;46.27;100449.91;7387065;19;20396;-76
2024/04/07 09:57:47;;;;;;;6.57;1.50;;;;;;;23.67;45.57;100485.13;7383844;19;20010;-76
2024/04/07 10:00:13;;;;;;;5.95;1.67;;;;;;;23.53;45.20;100472.97;7382273;19;20025;-75
2024/04/07 10:02:39;;;;;;;3.15;1.45;;;;;;;23.39;45.90;100506.75;7387520;19;20082;-76
2024/04/07 10:05:05;;;;;;;3.65;1.65;;;;;;;23.10;46.45;100468.25;7388074;19;20040;-75
2024/04/07 10:07:34;;;;;;;8.05;1.60;;;;;;;23.31;45.66;100478.78;7386388;19;20018;-76
2024/04/07 10:10:01;;;;;;;8.80;1.30;;;;;;;23.25;45.14;100458.63;7384787;19;20118;-76
2024/04/07 10:12:31;;;;;;;6.90;1.70;;;;;;;23.45;45.59;100473.69;7386917;19;20025;-75
2024/04/07 10:15:00;;;;;;;5.93;1.38;;;;;;;23.54;44.98;100471.13;7387502;19;20027;-76
2024/04/07 10:17:30;;;;;;;4.85;1.25;;;;;;;23.15;45.01;100449.72;7388514;19;20010;-75
2024/04/07 10:19:57;;;;;;;8.38;2.00;;;;;;;22.99;45.80;100452.22;7381392;19;20078;-76
2024/04/07 10:22:24;;;;;;;8.15;1.80;;;;;;;23.21;47.08;100488.81;7387356;19;20122;-76
2024/04/07 10:24:51;;;;;;;8.77;1.98;;;;;;;22.90;46.92;100404.53;7389136;19;20015;-74
2024/04/07 10:27:23;;;;;;;4.57;1.63;;;;;;;23.39;46.58;100465.38;7387715;19;20026;-76
2024/04/07 10:29:54;;;;;;;6.53;1.27;;;;;;;23.60;46.44;100486.75;7383436;19;20133;-76
2024/04/07 10:32:33;;;;;;;6.47;1.70;;;;;;;23.38;46.15;100458.25;7385853;19;20593;-76
2024/04/07 10:35:10;;;;;;;4.80;1.33;;;;;;;23.56;45.78;100490.75;7387271;19;20029;-77
2024/04/07 10:37:41;;;;;;;6.57;2.05;;;;;;;23.30;45.07;100459.00;7384465;19;20010;-76
2024/04/07 10:40:09;;;;;;;4.60;1.77;;;;;;;23.09;45.55;100423.34;7383290;19;20025;-77
2024/04/07 10:42:37;;;;;;;2.22;1.08;;;;;;;23.57;45.38;100484.34;7382432;19;20541;-75
2024/04/07 10:45:04;;;;;;;3.40;1.20;;;;;;;23.32;44.70;100454.31;7387797;19;20150;-76
2024/04/07 10:47:31;;;;;;;5.35;1.40;;;;;;;22.95;44.05;100434.66;7384772;19;20017;-76
2024/04/07 10:49:57;;;;;;;7.90;1.30;;;;;;;23.24;45.18;100467.75;7383642;19;20506;-76
2024/04/07 10:52:26;;;;;;;6.45;1.63;;;;;;;23.34;44.17;100463.13;7386120;19;20115;-76
2024/04/07 10:54:56;;;;;;;4.28;1.08;;;;;;;23.54;42.87;100453.06;7391551;19;20804;-76
2024/04/07 10:57:24;;;;;;;7.90;2.53;;;;;;;23.08;43.13;100332.50;7393715;19;20006;-77
2024/04/07 10:59:50;;;;;;;11.77;4.00;;;;;;;24.06;42.58;100464.00;7390970;19;20011;-76
2024/04/07 11:02:17;;;;;;;10.63;2.70;;;;;;;23.93;41.65;100421.13;7392263;19;19999;-77
2024/04/07 11:04:43;;;;;;;4.72;1.17;;;;;;;24.37;41.61;100465.28;7390195;19;20007;-76
2024/04/07 11:07:09;;;;;;;3.78;1.13;;;;;;;24.50;41.87;100472.97;7394241;19;20006;-76
2024/04/07 11:09:39;;;;;;;4.00;1.40;;;;;;;24.54;42.07;100473.50;7391730;19;20011;-77
2024/04/07 11:12:06;;;;;;;4.68;1.15;;;;;;;24.48;41.89;100466.88;7389530;19;20011;-76
2024/04/07 11:14:32;;;;;;;6.32;1.40;;;;;;;24.25;42.15;100428.66;7391474;19;20135;-76
2024/04/07 11:17:06;;;;;;;7.53;1.60;;;;;;;24.59;41.47;100454.91;7393112;19;20015;-76
2024/04/07 11:19:34;;;;;;;5.25;1.50;;;;;;;24.74;41.31;100464.97;7385303;19;20014;-76